Weather at Mukinbudin Airport

Public forecast

Using degrees Celsius for public forecast. Weather courtesy of forecast.io.

Closest aviation weather report (METAR) to Mukinbudin Airport

Closest report is RAAF Base Pearce, 123.4 nm (228.5 km) WSW. Retrieved 2022/05/27 13:00 UTC (21 minutes ago):

YPEA 271300Z AUTO 18003KT 9999 // BKN085 14/09 Q1017

Closest aviation forecast (TAF) to Mukinbudin Airport

Closest forecast is RAAF Base Pearce, 123.4 nm (228.5 km) WSW. Retrieved 2022/05/27 12:37 UTC (44 minutes ago):

TAF YPEA 271134Z 2712/2806 10006KT CAVOK FM280400 21010KT CAVOK FM280500 21014G24KT 9999 SCT030